createdAt,value
2023-05-17T09:15:23.805Z,42.29
2023-05-17T09:17:52.489Z,38.91
2023-05-17T09:20:24.686Z,38.28
2023-05-17T09:22:52.157Z,41.79
2023-05-17T09:25:24.339Z,38.14
2023-05-17T09:27:54.969Z,38.57
2023-05-17T09:30:33.324Z,37.17
2023-05-17T09:33:10.157Z,35.64
2023-05-17T09:35:38.452Z,34.76
2023-05-17T09:38:12.163Z,37.46
2023-05-17T09:40:40.599Z,35.29
2023-05-17T09:43:08.005Z,36.21
2023-05-17T09:45:36.467Z,36.40
2023-05-17T09:48:15.043Z,36.33
2023-05-17T09:50:46.748Z,38.30
2023-05-17T09:53:23.591Z,36.55
2023-05-17T09:55:52.946Z,34.29
2023-05-17T09:58:19.784Z,32.57
2023-05-17T10:00:52.437Z,35.31
2023-05-17T10:03:19.386Z,32.77
2023-05-17T10:05:50.956Z,33.92
2023-05-17T10:08:18.086Z,33.29
2023-05-17T10:10:45.820Z,34.33
2023-05-17T10:13:14.341Z,32.07
2023-05-17T10:15:41.304Z,31.72
2023-05-17T10:18:09.492Z,33.28
2023-05-17T10:20:37.590Z,32.38
2023-05-17T10:23:06.444Z,31.74
2023-05-17T10:25:33.699Z,30.91
2023-05-17T10:28:01.614Z,32.10
2023-05-17T10:30:29.327Z,31.25
2023-05-17T10:32:57.074Z,31.71
2023-05-17T10:35:24.653Z,30.83
2023-05-17T10:37:51.664Z,29.47
2023-05-17T10:40:20.348Z,28.63
2023-05-17T10:42:53.814Z,30.89
2023-05-17T10:45:22.467Z,29.16
2023-05-17T10:47:51.902Z,29.36
2023-05-17T10:50:26.564Z,29.97
2023-05-17T10:52:56.564Z,30.80
2023-05-17T10:55:25.299Z,29.36
2023-05-17T10:58:18.298Z,30.92
2023-05-17T11:00:49.361Z,28.59
2023-05-17T11:03:20.210Z,27.08
2023-05-17T11:06:23.333Z,28.32
2023-05-17T11:09:17.012Z,28.97
2023-05-17T11:12:06.675Z,28.03
2023-05-17T11:14:45.925Z,28.83
2023-05-17T11:17:18.140Z,30.09
2023-05-17T11:19:57.437Z,28.65
2023-05-17T11:22:25.373Z,29.76
2023-05-17T11:24:54.085Z,27.79
2023-05-17T11:27:27.500Z,27.57
2023-05-17T11:29:59.084Z,27.62
2023-05-17T11:32:31.219Z,27.22
2023-05-17T11:35:00.806Z,29.02
2023-05-17T11:37:28.919Z,29.21
2023-05-17T11:40:26.369Z,27.52
2023-05-17T11:43:11.180Z,27.45
2023-05-17T11:45:46.418Z,27.26
2023-05-17T11:48:14.265Z,28.14
2023-05-17T11:50:42.291Z,28.36
2023-05-17T11:53:10.322Z,29.12
2023-05-17T11:55:41.664Z,29.51
2023-05-17T11:58:10.708Z,29.12
2023-05-17T12:00:39.492Z,28.81
2023-05-17T12:03:20.151Z,29.36
2023-05-17T12:05:48.678Z,29.59
2023-05-17T12:08:17.017Z,30.12
2023-05-17T12:10:52.026Z,31.83
2023-05-17T12:13:19.774Z,32.23
2023-05-17T12:15:51.888Z,31.29
2023-05-17T12:18:20.894Z,30.71
2023-05-17T12:20:58.153Z,30.54
2023-05-17T12:23:36.647Z,30.73
2023-05-17T12:26:10.299Z,30.71
2023-05-17T12:28:38.674Z,29.71
2023-05-17T12:31:09.226Z,31.60
2023-05-17T12:33:37.216Z,31.80
2023-05-17T12:36:08.695Z,30.99
2023-05-17T12:38:36.554Z,29.73
2023-05-17T12:41:07.702Z,31.43
2023-05-17T12:43:35.415Z,31.40
2023-05-17T12:46:06.038Z,29.80
2023-05-17T12:48:41.177Z,31.09
2023-05-17T12:51:16.432Z,31.31
2023-05-17T12:54:04.257Z,31.48
2023-05-17T12:56:31.043Z,33.01
2023-05-17T12:59:17.264Z,32.92
2023-05-17T13:01:45.081Z,32.02
2023-05-17T13:04:13.383Z,33.11
2023-05-17T13:06:49.069Z,32.25
2023-05-17T13:09:18.792Z,33.16
2023-05-17T13:11:52.860Z,32.85
2023-05-17T13:14:48.715Z,31.79
2023-05-17T13:17:15.664Z,32.22
2023-05-17T13:19:43.774Z,32.43
2023-05-17T13:22:10.783Z,33.96
2023-05-17T13:24:40.024Z,33.71
2023-05-17T13:27:07.699Z,34.36
2023-05-17T13:29:40.291Z,33.51
2023-05-17T13:32:09.624Z,32.67
2023-05-17T13:34:37.009Z,33.33
